Time;durP1;ratioP1;P1;durP2;ratioP2;P2;SDS_P1;SDS_P2;PMS_P1;PMS_P2;Temp;Humidity;BMP_temperature;BMP_pressure;BME280_temperature;BME280_humidity;BME280_pressure;Samples;Min_cycle;Max_cycle;Signal;HPM_P1;HPM_P2
2022/10/27 00:00:27;;;;;;;1.03;1.03;;;;;10.70;96781.00;;;;5094227;28;20190;-52
2022/10/27 00:02:54;;;;;;;1.47;1.37;;;11.30;98.40;10.70;96784.00;;;;5094044;28;20519;-54
2022/10/27 00:05:21;;;;;;;0.83;0.83;;;11.40;98.70;10.60;96786.00;;;;5076303;28;20214;-52
2022/10/27 00:07:47;;;;;;;1.27;1.27;;;11.40;98.10;10.60;96786.00;;;;5094009;28;20248;-54
2022/10/27 00:10:17;;;;;;;1.40;1.30;;;11.40;97.90;10.60;96787.00;;;;5093886;28;20233;-52
2022/10/27 00:12:43;;;;;;;1.60;1.50;;;11.40;98.20;10.60;96787.00;;;;5093955;28;20624;-52
2022/10/27 00:15:11;;;;;;;2.10;1.20;;;11.40;98.10;10.60;96781.00;;;;5093759;28;20222;-52
2022/10/27 00:17:39;;;;;;;1.20;1.20;;;11.30;98.90;10.50;96787.00;;;;5093863;28;20191;-52
2022/10/27 00:20:09;;;;;;;0.80;0.80;;;11.20;99.40;10.60;96783.00;;;;5094167;28;20583;-52
2022/10/27 00:22:35;;;;;;;0.83;0.83;;;11.30;99.90;10.60;96783.00;;;;5093701;28;20206;-54
2022/10/27 00:25:03;;;;;;;3.13;1.57;;;11.20;99.90;10.50;96785.00;;;;5093761;28;20186;-52
2022/10/27 00:27:29;;;;;;;1.63;1.57;;;11.30;99.90;10.50;96786.00;;;;5093527;28;20233;-52
2022/10/27 00:29:56;;;;;;;0.90;0.90;;;;;10.30;96785.00;;;;5094119;28;20209;-53
2022/10/27 00:32:23;;;;;;;0.80;0.80;;;;;10.50;96792.00;;;;5076120;28;20731;-53
2022/10/27 00:34:50;;;;;;;1.03;1.00;;;;;10.30;96788.00;;;;5075772;28;20261;-53
2022/10/27 00:37:19;;;;;;;0.60;0.60;;;;;10.20;96792.00;;;;5075858;28;20598;-54
2022/10/27 00:39:46;;;;;;;1.07;1.07;;;;;10.30;96796.00;;;;5075633;28;20229;-53
2022/10/27 00:42:14;;;;;;;0.90;0.90;;;11.10;98.50;10.30;96791.00;;;;5075844;28;20607;-52
2022/10/27 00:44:42;;;;;;;0.87;0.83;;;11.10;99.30;10.20;96796.00;;;;5093337;28;20191;-54
2022/10/27 00:47:20;;;;;;;5.30;1.00;;;11.00;99.10;10.20;96794.00;;;;5093526;28;20212;-52
2022/10/27 00:49:57;;;;;;;0.63;0.63;;;10.90;99.70;10.20;96801.00;;;;5075638;28;20759;-54
2022/10/27 00:52:30;;;;;;;1.03;0.90;;;10.90;99.90;10.20;96790.00;;;;5075564;28;20193;-52
2022/10/27 00:55:03;;;;;;;0.90;0.90;;;10.90;99.90;10.10;96794.00;;;;5093317;28;20221;-54
2022/10/27 00:57:31;;;;;;;0.43;0.43;;;10.90;99.90;10.20;96801.00;;;;5093304;28;20287;-53
2022/10/27 01:00:00;;;;;;;0.80;0.80;;;10.90;99.90;10.10;96791.00;;;;5093375;28;20202;-54
2022/10/27 01:02:26;;;;;;;0.70;0.70;;;10.90;99.90;10.20;96783.00;;;;5093067;28;20233;-55
2022/10/27 01:05:00;;;;;;;0.70;0.70;;;10.90;99.90;10.20;96786.00;;;;5093069;28;20195;-59
2022/10/27 01:07:28;;;;;;;1.17;1.13;;;10.90;99.90;10.20;96799.00;;;;5093301;28;20214;-54
2022/10/27 01:09:58;;;;;;;0.60;0.60;;;10.90;99.90;10.30;96798.00;;;;5093241;28;20260;-52
2022/10/27 01:12:26;;;;;;;0.93;0.93;;;11.00;99.90;10.20;96799.00;;;;5093198;28;20195;-52
2022/10/27 01:14:53;;;;;;;0.97;0.97;;;10.90;99.90;10.20;96795.00;;;;5093005;28;20218;-53
2022/10/27 01:17:39;;;;;;;0.70;0.70;;;10.90;99.90;10.20;96789.00;;;;5093134;28;20198;-52
2022/10/27 01:21:01;;;;;;;0.70;0.70;;;11.00;99.90;10.10;96787.00;;;;5075142;28;20234;-53
2022/10/27 01:23:48;;;;;;;0.50;0.50;;;10.90;99.90;9.90;96791.00;;;;5092479;28;20647;-53
2022/10/27 01:26:45;;;;;;;0.43;0.43;;;10.70;99.50;9.90;96784.00;;;;5093023;28;20265;-52
2022/10/27 01:29:44;;;;;;;1.07;1.07;;;10.60;99.90;9.80;96782.00;;;;5091961;28;20580;-56
2022/10/27 01:32:26;;;;;;;0.80;0.80;;;10.60;99.90;9.70;96786.00;;;;5092924;28;20203;-52
2022/10/27 01:35:06;;;;;;;1.00;1.00;;;10.50;99.90;9.70;96787.00;;;;5092871;28;20277;-52
2022/10/27 01:37:41;;;;;;;0.60;0.60;;;10.40;99.90;9.80;96783.00;;;;5092893;28;20855;-53
2022/10/27 01:40:21;;;;;;;0.60;0.60;;;10.50;99.90;9.90;96762.00;;;;5092814;28;20202;-54
2022/10/27 01:42:50;;;;;;;0.60;0.60;;;10.50;99.90;9.80;96799.00;;;;5092851;28;20670;-55
2022/10/27 01:45:23;;;;;;;0.63;0.63;;;10.60;99.90;9.80;96789.00;;;;5092988;28;20627;-54
2022/10/27 01:47:51;;;;;;;0.73;0.73;;;10.60;99.90;9.80;96783.00;;;;5092681;28;20218;-55
2022/10/27 01:50:24;;;;;;;0.70;0.70;;;10.60;99.90;9.90;96777.00;;;;5092936;28;20201;-52
2022/10/27 01:52:50;;;;;;;0.50;0.50;;;10.60;99.90;9.90;96770.00;;;;5092666;28;20214;-56
2022/10/27 01:55:28;;;;;;;0.93;0.93;;;10.60;99.90;9.80;96767.00;;;;5092601;28;20222;-53
2022/10/27 01:58:42;;;;;;;1.23;1.23;;;10.60;99.90;9.90;96777.00;;;;5092745;28;20373;-54
2022/10/27 02:01:34;;;;;;;0.87;0.87;;;10.60;99.90;9.70;96774.00;;;;5092620;28;20171;-52
2022/10/27 02:04:15;;;;;;;1.10;1.07;;;10.50;99.50;9.60;96780.00;;;;5092437;28;20275;-53
2022/10/27 02:06:54;;;;;;;1.17;1.17;;;10.40;99.60;9.60;96772.00;;;;5092746;28;20220;-52
2022/10/27 02:09:36;;;;;;;0.90;0.90;;;10.40;99.80;9.60;96770.00;;;;5092363;28;20305;-52
2022/10/27 02:12:12;;;;;;;1.00;1.00;;;10.30;99.90;9.60;96774.00;;;;5092580;28;20288;-52
2022/10/27 02:14:40;;;;;;;1.00;1.00;;;10.30;99.90;9.60;96770.00;;;;5092298;28;20230;-52
2022/10/27 02:17:13;;;;;;;1.23;1.10;;;10.30;99.90;9.60;96768.00;;;;5095042;28;20190;-52
2022/10/27 02:19:50;;;;;;;0.80;0.80;;;10.30;99.60;9.60;96766.00;;;;5095961;28;20199;-52
2022/10/27 02:22:17;;;;;;;0.57;0.57;;;10.30;99.80;9.60;96756.00;;;;5078780;28;20607;-52
2022/10/27 02:24:43;;;;;;;2.77;0.83;;;10.40;99.50;9.50;96766.00;;;;5094857;28;20210;-53
2022/10/27 02:27:17;;;;;;;1.30;1.20;;;10.20;98.90;9.30;96773.00;;;;5095770;28;20219;-53
2022/10/27 02:29:47;;;;;;;0.80;0.80;;;10.10;97.40;9.20;96762.00;;;;5097495;28;20218;-60
2022/10/27 02:32:19;;;;;;;0.53;0.53;;;9.90;97.50;9.20;96767.00;;;;5095840;28;20301;-53
2022/10/27 02:34:49;;;;;;;0.70;0.70;;;9.90;98.50;9.20;96760.00;;;;5095704;28;20246;-52
2022/10/27 02:37:20;;;;;;;1.17;1.17;;;10.00;99.00;9.30;96766.00;;;;5095324;28;20222;-52
2022/10/27 02:39:47;;;;;;;0.70;0.70;;;10.00;99.40;9.40;96773.00;;;;5095648;28;20225;-55
2022/10/27 02:42:13;;;;;;;0.77;0.77;;;10.10;99.80;9.50;96768.00;;;;5095513;28;20250;-55
2022/10/27 02:44:39;;;;;;;1.00;1.00;;;10.10;99.90;9.50;96765.00;;;;5094423;28;20595;-53
2022/10/27 02:47:06;;;;;;;1.10;1.10;;;10.20;99.90;9.50;96762.00;;;;5095388;28;20278;-55
2022/10/27 02:49:32;;;;;;;1.27;1.27;;;10.20;99.90;9.50;96771.00;;;;5095367;28;20290;-53
2022/10/27 02:52:03;;;;;;;1.93;1.00;;;10.20;99.90;9.40;96775.00;;;;5095214;28;20357;-52
2022/10/27 02:54:30;;;;;;;0.93;0.93;;;10.20;99.90;9.30;96774.00;;;;5095076;28;20226;-52
2022/10/27 02:56:56;;;;;;;3.30;0.97;;;10.10;99.80;9.20;96777.00;;;;5095307;28;20194;-52
2022/10/27 02:59:23;;;;;;;1.63;1.53;;;10.00;99.60;9.00;96779.00;;;;5095082;28;20359;-52
2022/10/27 03:01:49;;;;;;;0.70;0.70;;;9.90;99.60;9.10;96775.00;;;;5095148;28;20673;-52
2022/10/27 03:04:15;;;;;;;0.67;0.67;;;9.80;99.90;9.10;96768.00;;;;5095013;28;20654;-53
2022/10/27 03:06:42;;;;;;;3.73;1.50;;;9.80;99.90;9.20;96770.00;;;;5095302;28;20285;-53
2022/10/27 03:09:09;;;;;;;1.23;1.20;;;9.90;99.90;9.20;96769.00;;;;5095056;28;20278;-53
2022/10/27 03:11:35;;;;;;;1.13;1.13;;;9.90;99.90;9.10;96766.00;;;;5077132;28;20254;-54
2022/10/27 03:14:02;;;;;;;0.60;0.60;;;9.90;99.90;9.10;96758.00;;;;5094845;28;20298;-53
2022/10/27 03:16:28;;;;;;;0.70;0.70;;;9.90;99.90;9.10;96768.00;;;;5094895;28;20254;-53
2022/10/27 03:18:55;;;;;;;0.87;0.87;;;9.90;99.90;9.00;96757.00;;;;5095104;28;20647;-53
2022/10/27 03:21:21;;;;;;;1.57;1.47;;;9.80;99.70;9.10;96770.00;;;;5094741;28;20216;-53
2022/10/27 03:23:50;;;;;;;5.97;1.43;;;9.80;99.90;9.10;96767.00;;;;5094987;28;20704;-53
2022/10/27 03:26:17;;;;;;;1.40;1.30;;;9.80;99.90;9.00;96767.00;;;;5093503;28;20539;-53
2022/10/27 03:28:43;;;;;;;1.77;1.40;;;9.80;99.30;9.00;96767.00;;;;5094562;28;20207;-52
2022/10/27 03:31:10;;;;;;;1.50;1.50;;;9.80;99.00;8.90;96721.00;;;;5094782;28;20657;-52
2022/10/27 03:33:36;;;;;;;1.23;1.07;;;9.70;99.00;8.70;96772.00;;;;5093428;28;20223;-54
2022/10/27 03:36:05;;;;;;;0.73;0.73;;;9.50;98.30;8.80;96764.00;;;;5093654;28;20317;-53
2022/10/27 03:38:34;;;;;;;15.30;1.63;;;9.60;99.20;8.80;96768.00;;;;5094415;28;20222;-53
2022/10/27 03:41:00;;;;;;;0.70;0.70;;;9.60;99.00;8.80;96765.00;;;;5093478;28;20543;-53
2022/10/27 03:43:27;;;;;;;0.67;0.67;;;9.50;98.60;8.70;96764.00;;;;5094434;28;20203;-53
2022/10/27 03:45:54;;;;;;;1.23;1.00;;;9.40;98.00;8.70;96763.00;;;;5094328;28;20215;-53
2022/10/27 03:48:20;;;;;;;0.53;0.53;;;9.50;98.90;8.80;96762.00;;;;5094363;28;20223;-54
2022/10/27 03:50:49;;;;;;;1.67;1.07;;;9.50;98.20;8.90;96776.00;;;;5093282;28;20202;-53
2022/10/27 03:53:18;;;;;;;0.97;0.97;;;9.60;98.10;8.90;96787.00;;;;5094311;28;20654;-53
2022/10/27 03:55:47;;;;;;;1.00;1.00;;;9.60;97.90;9.00;96780.00;;;;5093196;28;20630;-54
2022/10/27 03:58:16;;;;;;;0.83;0.83;;;9.60;98.70;9.00;96782.00;;;;5094168;28;20201;-54
2022/10/27 04:00:45;;;;;;;0.80;0.80;;;9.70;99.00;9.00;96787.00;;;;5094192;28;20215;-54
2022/10/27 04:03:12;;;;;;;0.60;0.60;;;9.70;98.50;9.00;96790.00;;;;5093208;28;20238;-54
2022/10/27 04:05:38;;;;;;;0.90;0.90;;;9.80;99.30;9.10;96779.00;;;;5094301;28;20320;-54
2022/10/27 04:08:05;;;;;;;0.63;0.63;;;9.80;99.70;8.80;96785.00;;;;5093721;28;20237;-52
2022/10/27 04:10:31;;;;;;;0.60;0.60;;;9.70;98.40;8.80;96777.00;;;;5094058;28;20259;-55
2022/10/27 04:12:57;;;;;;;0.50;0.50;;;9.60;99.60;8.80;96791.00;;;;5093957;28;20222;-58
2022/10/27 04:15:27;;;;;;;0.60;0.60;;;9.60;99.90;8.80;96788.00;;;;5093873;28;20252;-54
2022/10/27 04:17:55;;;;;;;0.70;0.70;;;9.50;99.90;8.70;96783.00;;;;5093876;28;20248;-54
2022/10/27 04:20:23;;;;;;;0.60;0.60;;;9.50;99.90;8.70;96786.00;;;;5094219;28;20240;-54
2022/10/27 04:22:49;;;;;;;0.90;0.90;;;9.50;99.90;8.70;96792.00;;;;5093686;28;20209;-54
2022/10/27 04:25:18;;;;;;;0.70;0.70;;;9.50;99.90;8.60;96791.00;;;;5093214;28;20206;-54
2022/10/27 04:27:44;;;;;;;0.70;0.70;;;9.40;99.40;8.50;96785.00;;;;5093728;28;20210;-54
2022/10/27 04:30:13;;;;;;;0.60;0.60;;;9.30;99.90;8.50;96781.00;;;;5093838;28;20256;-53
2022/10/27 04:32:40;;;;;;;0.60;0.60;;;9.30;99.80;8.50;96783.00;;;;5093838;28;20258;-54
2022/10/27 04:35:08;;;;;;;0.87;0.87;;;9.30;99.60;8.50;96791.00;;;;5093526;28;20325;-53
2022/10/27 04:37:36;;;;;;;0.70;0.70;;;9.30;99.60;8.50;96790.00;;;;5093571;28;20191;-54
2022/10/27 04:40:04;;;;;;;0.73;0.73;;;9.20;99.20;8.60;96794.00;;;;5091936;28;20230;-54
2022/10/27 04:42:30;;;;;;;8.30;1.23;;;9.30;99.30;9.00;96790.00;;;;5075876;28;20631;-57
2022/10/27 04:44:57;;;;;;;0.50;0.50;;;9.60;99.90;9.10;96788.00;;;;5093581;28;20191;-55
2022/10/27 04:47:23;;;;;;;0.83;0.83;;;9.70;99.90;9.10;96793.00;;;;5093741;28;20209;-56
2022/10/27 04:49:49;;;;;;;0.80;0.80;;;9.90;99.90;9.10;96787.00;;;;5093552;28;20199;-55
2022/10/27 04:52:19;;;;;;;1.13;1.13;;;9.90;99.90;8.90;96779.00;;;;5093515;28;20230;-57
2022/10/27 04:54:45;;;;;;;0.70;0.70;;;9.70;99.90;8.80;96783.00;;;;5093354;28;20222;-56
2022/10/27 04:57:11;;;;;;;0.80;0.80;;;9.60;99.90;8.70;96779.00;;;;5093440;28;20222;-58
2022/10/27 04:59:40;;;;;;;1.03;1.03;;;9.50;99.80;8.60;96773.00;;;;5093410;28;20480;-58
2022/10/27 05:02:07;;;;;;;0.90;0.90;;;9.40;99.50;8.60;96781.00;;;;5093522;28;20237;-55
2022/10/27 05:04:34;;;;;;;0.50;0.50;;;9.40;99.40;8.50;96783.00;;;;5093239;28;20229;-55
2022/10/27 05:07:00;;;;;;;0.60;0.60;;;9.30;99.20;8.50;96775.00;;;;5093338;28;20208;-55
2022/10/27 05:09:27;;;;;;;0.60;0.60;;;9.20;99.40;8.60;96781.00;;;;5092390;28;20298;-57
2022/10/27 05:11:53;;;;;;;0.67;0.67;;;9.30;99.70;8.60;96772.00;;;;5093180;28;20194;-56
2022/10/27 05:14:20;;;;;;;0.70;0.70;;;9.30;99.50;8.70;96771.00;;;;5093122;28;20275;-57
2022/10/27 05:16:46;;;;;;;1.17;1.07;;;9.40;98.90;8.60;96771.00;;;;5093012;28;20194;-54
2022/10/27 05:19:13;;;;;;;0.70;0.70;;;9.40;98.30;8.60;96765.00;;;;5093113;28;20236;-54
2022/10/27 05:21:39;;;;;;;0.80;0.80;;;9.40;98.40;8.60;96767.00;;;;5093361;28;20232;-54
2022/10/27 05:24:06;;;;;;;0.60;0.60;;;9.40;98.20;8.50;96758.00;;;;5092952;28;20229;-56
2022/10/27 05:26:33;;;;;;;1.23;0.80;;;9.30;97.50;8.50;96754.00;;;;5093104;28;20226;-54
2022/10/27 05:28:59;;;;;;;0.60;0.60;;;9.30;97.70;8.40;96772.00;;;;5092005;28;20258;-53
2022/10/27 05:31:28;;;;;;;1.00;1.00;;;9.20;97.20;8.40;96768.00;;;;5093724;28;20229;-52
2022/10/27 05:33:55;;;;;;;0.70;0.70;;;9.20;97.70;8.50;96765.00;;;;5092635;28;20218;-54
2022/10/27 05:36:23;;;;;;;1.17;1.17;;;9.20;98.30;8.50;96760.00;;;;5092784;28;20205;-55
2022/10/27 05:38:50;;;;;;;0.60;0.60;;;9.30;98.50;8.60;96762.00;;;;5092768;28;20206;-53
2022/10/27 05:41:17;;;;;;;0.97;0.97;;;9.30;98.20;8.50;96754.00;;;;5092961;28;20199;-57
2022/10/27 05:43:44;;;;;;;0.80;0.80;;;9.30;97.70;8.40;96759.00;;;;5092992;28;20199;-54
2022/10/27 05:46:11;;;;;;;0.90;0.90;;;9.30;97.40;8.30;96748.00;;;;5092795;28;20187;-53
2022/10/27 05:48:37;;;;;;;0.70;0.70;;;9.10;97.40;8.30;96754.00;;;;5092736;28;20286;-53
2022/10/27 05:51:04;;;;;;;1.00;1.00;;;9.10;97.70;8.30;96752.00;;;;5094022;28;20194;-53
2022/10/27 05:53:30;;;;;;;1.20;1.10;;;9.00;97.80;8.20;96758.00;;;;5096125;28;20187;-53
2022/10/27 05:55:59;;;;;;;0.90;0.90;;;9.00;98.00;8.10;96753.00;;;;5096043;28;20233;-58
2022/10/27 05:58:26;;;;;;;0.67;0.67;;;8.90;98.50;8.20;96765.00;;;;5096098;28;20643;-54
2022/10/27 06:00:57;;;;;;;0.60;0.60;;;8.90;99.40;8.20;96754.00;;;;5096099;28;20222;-54
2022/10/27 06:03:24;;;;;;;0.77;0.77;;;9.00;99.60;8.20;96757.00;;;;5096152;28;20201;-54
2022/10/27 06:05:52;;;;;;;0.70;0.70;;;9.00;99.60;8.30;96768.00;;;;5095962;28;20608;-55
2022/10/27 06:08:19;;;;;;;2.00;1.00;;;9.00;99.60;8.20;96767.00;;;;5078232;28;20539;-52
2022/10/27 06:10:46;;;;;;;0.63;0.63;;;9.00;99.50;8.10;96768.00;;;;5077863;28;20317;-54
2022/10/27 06:13:13;;;;;;;0.70;0.70;;;8.90;99.30;8.20;96776.00;;;;5095251;28;20249;-53
2022/10/27 06:15:41;;;;;;;0.70;0.70;;;8.90;99.90;8.30;96781.00;;;;5095632;28;20730;-52
2022/10/27 06:18:08;;;;;;;0.80;0.80;;;9.10;99.50;8.30;96781.00;;;;5078012;28;20191;-54
2022/10/27 06:20:35;;;;;;;0.70;0.70;;;9.10;99.10;8.40;96779.00;;;;5095643;28;20363;-53
2022/10/27 06:23:01;;;;;;;0.80;0.80;;;9.10;99.00;8.40;96775.00;;;;5095745;28;20305;-53
2022/10/27 06:25:28;;;;;;;1.23;0.80;;;9.20;99.40;8.50;96768.00;;;;5095691;28;20246;-53
2022/10/27 06:27:54;;;;;;;2.83;0.93;;;9.20;98.10;8.50;96763.00;;;;5094744;28;20647;-52
2022/10/27 06:30:21;;;;;;;0.80;0.80;;;9.20;97.60;8.50;96767.00;;;;5095648;28;20222;-52
2022/10/27 06:32:48;;;;;;;0.97;0.97;;;9.30;97.30;8.50;96768.00;;;;5095461;28;20209;-53
2022/10/27 06:35:15;;;;;;;0.97;0.97;;;9.30;96.80;8.40;96770.00;;;;5094342;28;20291;-54
2022/10/27 06:37:45;;;;;;;1.20;1.20;;;9.20;96.30;8.40;96762.00;;;;5095360;28;20224;-53
2022/10/27 06:40:16;;;;;;;0.80;0.80;;;9.20;96.20;8.30;96766.00;;;;5095277;28;20298;-53
2022/10/27 06:42:42;;;;;;;0.93;0.93;;;9.10;95.90;8.40;96768.00;;;;5095228;28;20205;-53
2022/10/27 06:45:10;;;;;;;5.07;2.40;;;9.10;95.90;8.40;96763.00;;;;5094296;28;20234;-53
2022/10/27 06:47:36;;;;;;;1.23;1.23;;;9.20;95.90;8.50;96766.00;;;;5095140;28;20199;-53
2022/10/27 06:50:03;;;;;;;2.10;1.67;;;9.20;95.70;8.50;96770.00;;;;5094459;28;20305;-53
2022/10/27 06:52:31;;;;;;;2.97;1.70;;;9.20;95.50;8.60;96777.00;;;;5095381;28;20250;-58
2022/10/27 06:54:57;;;;;;;1.30;1.30;;;9.30;95.00;8.50;96782.00;;;;5095088;28;20226;-54
2022/10/27 06:57:26;;;;;;;2.73;1.90;;;9.20;94.00;8.50;96781.00;;;;5095094;28;20246;-56
2022/10/27 06:59:52;;;;;;;1.67;1.57;;;9.30;95.90;8.90;96794.00;;;;5094163;28;20624;-54
2022/10/27 07:02:19;;;;;;;0.93;0.93;;;9.50;98.30;8.90;96796.00;;;;5093509;28;20315;-54
2022/10/27 07:04:45;;;;;;;2.23;2.13;;;9.60;97.40;9.00;96793.00;;;;5094956;28;20233;-54
2022/10/27 07:07:11;;;;;;;1.70;1.60;;;9.70;96.90;9.10;96794.00;;;;5094917;28;20278;-55
2022/10/27 07:09:41;;;;;;;1.47;1.37;;;9.80;96.30;9.40;96798.00;;;;5095112;28;20202;-54
2022/10/27 07:12:07;;;;;;;0.70;0.70;;;10.00;98.60;9.50;96800.00;;;;5095030;28;20221;-54
2022/10/27 07:14:34;;;;;;;1.43;1.33;;;10.20;98.60;9.70;96797.00;;;;5094995;28;20231;-54
2022/10/27 07:17:00;;;;;;;1.27;1.17;;;10.30;98.40;9.80;96790.00;;;;5095022;28;20201;-54
2022/10/27 07:19:27;;;;;;;0.97;0.97;;;10.40;97.90;9.80;96795.00;;;;5093862;28;20322;-54
2022/10/27 07:21:53;;;;;;;1.10;1.10;;;10.50;97.00;9.80;96798.00;;;;5094836;28;20665;-52
2022/10/27 07:24:20;;;;;;;1.20;1.17;;;10.50;96.10;9.70;96787.00;;;;5094731;28;20203;-53
2022/10/27 07:26:47;;;;;;;0.80;0.80;;;10.50;95.70;9.70;96800.00;;;;5094996;28;20658;-53
2022/10/27 07:29:16;;;;;;;0.90;0.90;;;10.50;95.60;9.60;96814.00;;;;5094739;28;20191;-53
2022/10/27 07:31:44;;;;;;;0.70;0.70;;;10.40;94.90;9.60;96813.00;;;;5094505;28;20280;-54
2022/10/27 07:34:11;;;;;;;0.60;0.60;;;10.40;95.60;9.70;96825.00;;;;5094469;28;20219;-53
2022/10/27 07:36:38;;;;;;;0.77;0.77;;;10.40;96.00;9.60;96807.00;;;;5094468;28;20546;-54
2022/10/27 07:39:05;;;;;;;0.70;0.70;;;10.30;95.70;9.70;96818.00;;;;5094557;28;20190;-54
2022/10/27 07:41:32;;;;;;;0.93;0.93;;;10.30;96.20;9.70;96812.00;;;;5094420;28;20275;-54
2022/10/27 07:44:01;;;;;;;0.50;0.50;;;10.40;96.20;9.70;96821.00;;;;5094412;28;20195;-55
2022/10/27 07:46:29;;;;;;;1.33;1.27;;;10.50;96.30;9.80;96818.00;;;;5094473;28;20285;-58
2022/10/27 07:48:55;;;;;;;1.97;1.30;;;10.50;96.50;9.90;96828.00;;;;5094297;28;20223;-53
2022/10/27 07:51:21;;;;;;;0.63;0.63;;;10.60;96.60;10.00;96831.00;;;;5093329;28;20669;-55
2022/10/27 07:53:49;;;;;;;1.20;1.10;;;10.70;96.60;10.00;96841.00;;;;5094212;28;20673;-54
2022/10/27 07:56:15;;;;;;;0.90;0.90;;;10.70;96.60;10.10;96842.00;;;;5094424;28;20198;-54
2022/10/27 07:58:42;;;;;;;0.70;0.70;;;10.80;96.90;10.10;96839.00;;;;5094292;28;20210;-55
2022/10/27 08:01:09;;;;;;;1.53;1.43;;;10.80;96.50;10.20;96832.00;;;;5094430;28;20281;-53
2022/10/27 08:03:35;;;;;;;0.80;0.80;;;10.90;97.20;10.40;96832.00;;;;5094193;28;20528;-60
2022/10/27 08:06:02;;;;;;;0.70;0.70;;;11.00;97.20;10.40;96838.00;;;;5094233;28;20303;-54
2022/10/27 08:08:29;;;;;;;0.53;0.53;;;;;10.50;96831.00;;;;5093070;28;20620;-55
2022/10/27 08:10:56;;;;;;;0.73;0.73;;;11.20;97.20;10.60;96833.00;;;;5094094;28;20230;-55
2022/10/27 08:13:23;;;;;;;0.70;0.70;;;11.30;97.70;10.70;96836.00;;;;5093147;28;20199;-54
2022/10/27 08:15:49;;;;;;;0.53;0.53;;;11.40;97.50;10.70;96818.00;;;;5093971;28;20529;-59
2022/10/27 08:18:17;;;;;;;0.67;0.67;;;11.40;97.40;10.80;96830.00;;;;5094349;28;20222;-54
2022/10/27 08:20:46;;;;;;;0.70;0.70;;;11.50;97.80;10.90;96832.00;;;;5094011;28;20255;-57
2022/10/27 08:23:15;;;;;;;1.27;1.23;;;11.60;97.50;11.00;96835.00;;;;5093951;28;20286;-54
2022/10/27 08:25:43;;;;;;;0.80;0.80;;;11.60;97.40;11.10;96829.00;;;;5076599;28;20545;-57
2022/10/27 08:28:11;;;;;;;1.27;1.03;;;11.70;97.70;11.20;96830.00;;;;5097229;28;20244;-60
2022/10/27 08:30:38;;;;;;;0.87;0.87;;;11.80;98.00;11.30;96836.00;;;;5096431;28;20179;-54
2022/10/27 08:33:05;;;;;;;0.57;0.57;;;11.90;98.30;11.40;96841.00;;;;5093859;28;20195;-54
2022/10/27 08:35:34;;;;;;;0.67;0.67;;;12.00;98.60;11.50;96824.00;;;;5075721;28;20913;-52
2022/10/27 08:38:03;;;;;;;1.00;1.00;;;12.10;98.70;11.60;96833.00;;;;5092586;28;20214;-53
2022/10/27 08:40:44;;;;;;;0.77;0.77;;;12.20;98.90;11.60;96839.00;;;;5093747;28;20233;-52
2022/10/27 08:44:07;;;;;;;1.27;1.27;;;12.30;98.60;11.80;96843.00;;;;5093446;28;20297;-53
2022/10/27 08:46:42;;;;;;;1.33;1.33;;;12.40;98.90;12.00;96843.00;;;;5011712;28;20232;-54
2022/10/27 08:49:28;;;;;;;0.77;0.77;;;12.60;98.60;12.10;96844.00;;;;5081405;28;20205;-55
2022/10/27 08:52:05;;;;;;;0.70;0.70;;;12.70;98.30;12.30;96841.00;;;;5093358;28;20230;-51
2022/10/27 08:54:32;;;;;;;2.10;0.83;;;12.90;98.20;12.40;96844.00;;;;5093296;28;20253;-52
2022/10/27 08:57:02;;;;;;;0.60;0.60;;;13.00;98.20;12.50;96833.00;;;;5093426;28;20198;-53
2022/10/27 08:59:33;;;;;;;0.60;0.60;;;13.10;98.30;12.70;96833.00;;;;5093384;28;20577;-54
2022/10/27 09:02:22;;;;;;;0.83;0.83;;;13.10;98.10;12.90;96833.00;;;;5093548;28;20267;-53
2022/10/27 09:05:29;;;;;;;0.60;0.60;;;13.40;98.10;13.00;96822.00;;;;5093328;28;20225;-56
2022/10/27 09:08:09;;;;;;;0.97;0.97;;;13.50;97.80;13.30;96828.00;;;;5075510;28;20205;-52
2022/10/27 09:10:46;;;;;;;0.80;0.80;;;13.80;98.30;13.50;96832.00;;;;5075320;28;20217;-53
2022/10/27 09:13:32;;;;;;;1.63;1.53;;;14.00;98.10;13.60;96831.00;;;;5093047;28;20201;-54
2022/10/27 09:16:05;;;;;;;1.97;0.90;;;14.10;97.50;13.70;96828.00;;;;5093039;28;20233;-53
2022/10/27 09:18:39;;;;;;;0.70;0.70;;;14.30;97.70;13.90;96828.00;;;;5093267;28;20507;-53
2022/10/27 09:21:16;;;;;;;1.00;1.00;;;14.40;97.20;14.00;96827.00;;;;5092855;28;20297;-60
2022/10/27 09:23:49;;;;;;;0.83;0.83;;;14.60;96.10;14.20;96818.00;;;;5092990;28;20198;-53
2022/10/27 09:26:20;;;;;;;0.90;0.90;;;14.70;95.40;14.40;96802.00;;;;5078861;28;20223;-55
2022/10/27 09:28:51;;;;;;;0.70;0.70;;;14.90;93.90;14.60;96813.00;;;;5096648;28;20337;-55
2022/10/27 09:31:24;;;;;;;0.80;0.80;;;15.00;93.20;14.70;96824.00;;;;5096373;28;20183;-54
2022/10/27 09:33:59;;;;;;;0.77;0.77;;;15.20;92.30;14.90;96821.00;;;;5099881;28;20206;-54
2022/10/27 09:36:28;;;;;;;1.50;1.10;;;;;15.10;96823.00;;;;5098320;28;20576;-54
2022/10/27 09:38:55;;;;;;;1.17;1.17;;;15.60;90.20;15.30;96825.00;;;;5096611;28;20206;-54
2022/10/27 09:41:22;;;;;;;0.73;0.73;;;15.70;90.60;15.60;96821.00;;;;5096500;28;20201;-54
2022/10/27 09:43:54;;;;;;;0.93;0.93;;;15.90;87.60;15.80;96825.00;;;;5096400;28;20246;-53
2022/10/27 09:46:24;;;;;;;0.60;0.60;;;16.20;85.80;15.90;96835.00;;;;5096338;28;20194;-53
2022/10/27 09:48:56;;;;;;;2.17;1.30;;;16.30;84.00;16.00;96830.00;;;;5078579;28;20628;-53
2022/10/27 09:51:26;;;;;;;1.10;0.97;;;16.50;83.30;16.30;96820.00;;;;5096632;28;20202;-55
2022/10/27 09:53:53;;;;;;;2.30;1.03;;;16.60;81.70;16.50;96819.00;;;;5096462;28;20214;-56
2022/10/27 09:56:26;;;;;;;1.50;1.10;;;;;16.70;96819.00;;;;5096484;28;20294;-55
2022/10/27 09:58:57;;;;;;;0.97;0.97;;;17.10;80.00;16.80;96812.00;;;;5096247;28;20195;-53
2022/10/27 10:01:47;;;;;;;0.70;0.70;;;17.20;77.90;16.90;96819.00;;;;5096214;28;20248;-54
2022/10/27 10:04:21;;;;;;;0.50;0.50;;;17.30;76.00;16.90;96823.00;;;;5096089;28;20213;-54
2022/10/27 10:06:54;;;;;;;0.80;0.80;;;17.30;76.20;17.00;96816.00;;;;5078043;28;20596;-54
2022/10/27 10:09:25;;;;;;;0.67;0.67;;;17.40;75.80;17.20;96813.00;;;;5095998;28;20202;-53
2022/10/27 10:12:22;;;;;;;0.63;0.63;;;17.70;75.60;17.50;96810.00;;;;5096169;28;20187;-53
2022/10/27 10:14:49;;;;;;;0.87;0.80;;;17.90;74.00;17.50;96812.00;;;;5096015;28;20214;-53
2022/10/27 10:17:25;;;;;;;0.50;0.50;;;17.90;73.30;17.50;96802.00;;;;5095593;28;20191;-58
2022/10/27 10:19:54;;;;;;;0.70;0.70;;;;;17.60;96804.00;;;;5095778;28;20234;-54
2022/10/27 10:22:27;;;;;;;0.70;0.70;;;;;17.80;96821.00;;;;5095519;28;20197;-54
2022/10/27 10:24:55;;;;;;;1.00;1.00;;;18.20;73.10;17.80;96812.00;;;;5077950;28;20267;-52
2022/10/27 10:27:30;;;;;;;0.43;0.43;;;18.40;70.50;17.90;96813.00;;;;5095700;28;20206;-54
2022/10/27 10:30:04;;;;;;;0.80;0.80;;;18.30;69.60;18.00;96818.00;;;;5095806;28;20214;-52
2022/10/27 10:32:35;;;;;;;1.40;1.30;;;18.40;71.70;18.10;96814.00;;;;5095985;28;20237;-53
2022/10/27 10:35:42;;;;;;;0.90;0.90;;;18.50;72.30;18.30;96809.00;;;;5095450;28;20230;-53
2022/10/27 10:38:30;;;;;;;1.13;1.13;;;18.60;71.10;18.60;96806.00;;;;5094797;28;20222;-52
2022/10/27 10:41:04;;;;;;;0.97;0.97;;;18.90;70.10;18.70;96803.00;;;;5095336;28;20226;-54
2022/10/27 10:43:32;;;;;;;0.67;0.67;;;19.00;69.00;18.80;96789.00;;;;5095480;28;20281;-54
2022/10/27 10:45:59;;;;;;;0.87;0.87;;;19.20;67.70;19.10;96797.00;;;;5095406;28;20207;-53
2022/10/27 10:48:38;;;;;;;6.43;1.27;;;19.40;68.20;19.40;96795.00;;;;5095572;28;20347;-53
2022/10/27 10:51:07;;;;;;;0.90;0.90;;;19.70;67.80;19.40;96796.00;;;;5077453;28;20544;-53
2022/10/27 10:53:39;;;;;;;2.93;2.00;;;19.80;65.10;19.70;96785.00;;;;5095078;28;20222;-53
2022/10/27 10:56:20;;;;;;;0.57;0.57;;;20.00;64.60;19.90;96791.00;;;;5095273;28;20769;-53
2022/10/27 10:58:54;;;;;;;1.27;1.27;;;20.20;61.70;19.90;96783.00;;;;5095237;28;20226;-53
2022/10/27 11:01:23;;;;;;;1.03;1.03;;;20.30;60.20;20.00;96780.00;;;;5095072;28;20630;-54
2022/10/27 11:03:53;;;;;;;0.40;0.40;;;20.40;59.40;20.30;96768.00;;;;5077860;28;20218;-53
2022/10/27 11:06:22;;;;;;;2.70;1.90;;;20.50;60.00;20.30;96777.00;;;;5096641;28;20213;-54
2022/10/27 11:09:00;;;;;;;1.13;0.90;;;20.60;57.80;20.50;96777.00;;;;5094340;28;20209;-53
2022/10/27 11:11:32;;;;;;;0.90;0.90;;;20.80;57.50;20.50;96771.00;;;;5077420;28;20198;-53
2022/10/27 11:14:06;;;;;;;0.80;0.80;;;20.80;55.80;20.60;96768.00;;;;5095087;28;20665;-52
2022/10/27 11:16:35;;;;;;;0.83;0.83;;;20.90;53.60;20.70;96769.00;;;;5094953;28;20719;-52
2022/10/27 11:19:06;;;;;;;1.37;1.27;;;21.00;53.50;20.70;96772.00;;;;5094919;28;20199;-60